42.1°F
Current conditions from King Hill
Updated every 5 minutes
 
  Wednesday April 23, 2014

Station Historical Data
Daily Summary for February 20, 2012 Units:  English    Metric   Both
« Previous Day
Next Day »
Daily Weekly Monthly Yearly Custom
  High: Low: Average:
Temperature: 29.7 °F 10.9 °F 20 °F
Dew Point: 15.6 °F 6.3 °F 11.9 °F
Humidity: 92% 50% 72%
Wind Speed: 5.0mph 0.0mph 1.8mph
Wind Gust: 12.0mph - -
Wind- - SSW
Pressure: 30.30 in 30.07 in -
Precipitation: 0.00 in    
Historical Graphs
 
 
Tabular Data for February 20, 2012
Time Temperature Dew Point Pressure Wind Wind Speed Wind Gust Humidity Daily Rainfall
00:00 20.0 °F 13.0 °F 30.07 in Calm   4.0 mph 74% 0.00 in
00:05 19.7 °F 12.8 °F 30.08 in NW 1.0 mph 4.0 mph 74% 0.00 in
00:10 19.7 °F 13.1 °F 30.08 in Calm   4.0 mph 75% 0.00 in
00:15 19.4 °F 12.8 °F 30.08 in Calm   3.0 mph 75% 0.00 in
00:20 19.4 °F 12.8 °F 30.08 in NW 1.0 mph 3.0 mph 75% 0.00 in
00:25 19.4 °F 12.8 °F 30.08 in Calm   3.0 mph 75% 0.00 in
00:30 19.3 °F 12.7 °F 30.08 in Calm   2.0 mph 75% 0.00 in
00:35 19.1 °F 12.5 °F 30.08 in Calm     75% 0.00 in
00:45 18.7 °F 12.4 °F 30.08 in Calm   3.0 mph 76% 0.00 in
00:50 18.7 °F 12.4 °F 30.08 in NW 1.0 mph 5.0 mph 76% 0.00 in
00:55 18.7 °F 12.4 °F 30.08 in Calm   5.0 mph 76% 0.00 in
01:00 18.7 °F 12.4 °F 30.08 in Calm   4.0 mph 76% 0.00 in
01:05 18.8 °F 12.8 °F 30.08 in Calm   4.0 mph 77% 0.00 in
01:10 18.8 °F 12.8 °F 30.08 in Calm   4.0 mph 77% 0.00 in
01:15 18.8 °F 12.5 °F 30.08 in Calm   2.0 mph 76% 0.00 in
01:20 18.7 °F 12.4 °F 30.08 in Calm   2.0 mph 76% 0.00 in
01:25 18.7 °F 12.7 °F 30.08 in Calm   2.0 mph 77% 0.00 in
01:30 18.8 °F 12.5 °F 30.08 in NW 1.0 mph 4.0 mph 76% 0.00 in
01:40 18.6 °F 12.3 °F 30.08 in Calm   4.0 mph 76% 0.00 in
01:45 18.4 °F 12.1 °F 30.08 in Calm   3.0 mph 76% 0.00 in
01:50 18.3 °F 12.3 °F 30.08 in NW 1.0 mph 3.0 mph 77% 0.00 in
01:55 18.1 °F 12.1 °F 30.08 in Calm   3.0 mph 77% 0.00 in
02:00 17.9 °F 11.9 °F 30.08 in Calm   2.0 mph 77% 0.00 in
02:05 17.7 °F 12.0 °F 30.08 in Calm   2.0 mph 78% 0.00 in
02:10 17.5 °F 11.8 °F 30.08 in NW 1.0 mph 5.0 mph 78% 0.00 in
02:15 17.3 °F 11.6 °F 30.08 in Calm   5.0 mph 78% 0.00 in
02:25 17.2 °F 11.5 °F 30.08 in Calm   4.0 mph 78% 0.00 in
02:35 17.1 °F 11.4 °F 30.08 in NW 1.0 mph 4.0 mph 78% 0.00 in
02:45 16.9 °F 11.5 °F 30.08 in Calm   3.0 mph 79% 0.00 in
02:50 16.9 °F 11.5 °F 30.08 in Calm   4.0 mph 79% 0.00 in
02:55 16.7 °F 11.3 °F 30.08 in Calm   4.0 mph 79% 0.00 in
03:00 16.6 °F 11.2 °F 30.08 in NW 1.0 mph 4.0 mph 79% 0.00 in
03:05 16.4 °F 11.0 °F 30.08 in Calm   4.0 mph 79% 0.00 in
03:10 16.5 °F 11.4 °F 30.08 in Calm   3.0 mph 80% 0.00 in
03:15 16.4 °F 11.0 °F 30.08 in NW 1.0 mph 4.0 mph 79% 0.00 in
03:20 16.3 °F 11.2 °F 30.08 in NW 1.0 mph 4.0 mph 80% 0.00 in
03:25 16.3 °F 11.2 °F 30.08 in NW 1.0 mph 4.0 mph 80% 0.00 in
03:30 16.4 °F 11.3 °F 30.09 in North 1.0 mph 4.0 mph 80% 0.00 in
03:35 16.4 °F 11.3 °F 30.09 in Calm   3.0 mph 80% 0.00 in
03:40 16.3 °F 11.2 °F 30.09 in Calm   3.0 mph 80% 0.00 in
03:45 16.2 °F 11.1 °F 30.09 in NNE 1.0 mph 4.0 mph 80% 0.00 in
03:50 16.2 °F 11.1 °F 30.09 in NNE 1.0 mph 4.0 mph 80% 0.00 in
03:55 16.3 °F 11.2 °F 30.09 in NW 1.0 mph 5.0 mph 80% 0.00 in
04:00 16.2 °F 11.1 °F 30.09 in Calm   5.0 mph 80% 0.00 in
04:05 16.1 °F 11.0 °F 30.09 in Calm   4.0 mph 80% 0.00 in
04:10 16.0 °F 11.2 °F 30.09 in Calm   4.0 mph 81% 0.00 in
04:15 15.9 °F 11.1 °F 30.09 in Calm   3.0 mph 81% 0.00 in
04:20 15.7 °F 10.9 °F 30.10 in Calm   2.0 mph 81% 0.00 in
04:25 15.5 °F 10.7 °F 30.10 in Calm   2.0 mph 81% 0.00 in
04:30 15.2 °F 10.4 °F 30.10 in Calm     81% 0.00 in
04:35 14.9 °F 10.1 °F 30.10 in Calm     81% 0.00 in
04:40 14.8 °F 10.3 °F 30.10 in Calm     82% 0.00 in
04:45 14.7 °F 10.2 °F 30.11 in Calm     82% 0.00 in
04:50 14.5 °F 10.0 °F 30.11 in Calm     82% 0.00 in
04:55 14.2 °F 9.7 °F 30.11 in Calm     82% 0.00 in
05:00 13.9 °F 9.4 °F 30.11 in Calm     82% 0.00 in
05:05 13.6 °F 9.1 °F 30.11 in Calm     82% 0.00 in
05:10 13.3 °F 8.8 °F 30.12 in Calm     82% 0.00 in
05:15 13.2 °F 8.7 °F 30.12 in Calm     82% 0.00 in
05:20 13.3 °F 9.1 °F 30.12 in Calm     83% 0.00 in
05:25 13.4 °F 9.2 °F 30.12 in Calm     83% 0.00 in
05:30 13.6 °F 9.4 °F 30.12 in Calm     83% 0.00 in
05:35 13.6 °F 9.4 °F 30.12 in Calm     83% 0.00 in
05:40 13.6 °F 9.4 °F 30.12 in Calm     83% 0.00 in
05:45 13.5 °F 9.3 °F 30.13 in Calm     83% 0.00 in
05:50 13.3 °F 9.1 °F 30.13 in Calm   3.0 mph 83% 0.00 in
05:55 13.0 °F 8.5 °F 30.13 in Calm   3.0 mph 82% 0.00 in
06:00 12.7 °F 8.2 °F 30.13 in Calm   3.0 mph 82% 0.00 in
06:05 12.4 °F 8.0 °F 30.13 in Calm   2.0 mph 82% 0.00 in
06:10 12.1 °F 7.7 °F 30.13 in Calm     82% 0.00 in
06:15 11.8 °F 7.1 °F 30.14 in Calm   1.0 mph 81% 0.00 in
06:20 11.5 °F 7.1 °F 30.14 in Calm   1.0 mph 82% 0.00 in
06:25 11.2 °F 6.5 °F 30.14 in Calm   1.0 mph 81% 0.00 in
06:30 11.0 °F 6.3 °F 30.14 in Calm   1.0 mph 81% 0.00 in
06:35 10.9 °F 6.5 °F 30.14 in Calm   1.0 mph 82% 0.00 in
06:45 11.2 °F 6.8 °F 30.15 in Calm   2.0 mph 82% 0.00 in
06:50 11.4 °F 7.2 °F 30.15 in Calm   2.0 mph 83% 0.00 in
07:00 11.7 °F 7.5 °F 30.15 in Calm   2.0 mph 83% 0.00 in
07:05 12.3 °F 10.4 °F 30.15 in NNE 1.0 mph 3.0 mph 92% 0.00 in
07:10 13.0 °F 8.8 °F 30.16 in Calm   5.0 mph 83% 0.00 in
07:15 13.5 °F 9.3 °F 30.16 in Calm   5.0 mph 83% 0.00 in
07:20 13.7 °F 9.2 °F 30.16 in NNE 2.0 mph 4.0 mph 82% 0.00 in
07:25 13.9 °F 9.2 °F 30.16 in NNE 1.0 mph 4.0 mph 81% 0.00 in
07:30 14.0 °F 9.2 °F 30.17 in Calm   4.0 mph 81% 0.00 in
07:35 13.9 °F 8.9 °F 30.17 in Calm   3.0 mph 80% 0.00 in
07:40 13.9 °F 8.9 °F 30.17 in Calm   3.0 mph 80% 0.00 in
07:45 13.9 °F 8.9 °F 30.17 in Calm   3.0 mph 80% 0.00 in
07:50 13.9 °F 8.9 °F 30.18 in Calm   3.0 mph 80% 0.00 in
07:55 14.1 °F 9.1 °F 30.18 in NE 1.0 mph 3.0 mph 80% 0.00 in
08:00 14.4 °F 9.1 °F 30.18 in NE 1.0 mph 4.0 mph 79% 0.00 in
08:05 14.7 °F 9.4 °F 30.18 in NE 1.0 mph 4.0 mph 79% 0.00 in
08:10 15.1 °F 9.8 °F 30.18 in Calm   3.0 mph 79% 0.00 in
08:15 15.4 °F 10.1 °F 30.19 in NNE 2.0 mph 4.0 mph 79% 0.00 in
08:20 15.7 °F 10.1 °F 30.19 in North 1.0 mph 4.0 mph 78% 0.00 in
08:25 15.9 °F 10.3 °F 30.19 in North 1.0 mph 4.0 mph 78% 0.00 in
08:30 15.9 °F 10.0 °F 30.19 in NNE 2.0 mph 6.0 mph 77% 0.00 in
08:35 16.1 °F 10.5 °F 30.19 in NNE 3.0 mph 7.0 mph 78% 0.00 in
08:40 16.2 °F 10.5 °F 30.19 in NE 2.0 mph 8.0 mph 78% 0.00 in
08:50 16.6 °F 10.9 °F 30.20 in NE 1.0 mph 6.0 mph 78% 0.00 in
09:00 17.5 °F 11.5 °F 30.20 in NE 1.0 mph 4.0 mph 77% 0.00 in
09:05 17.9 °F 11.6 °F 30.21 in North 1.0 mph 5.0 mph 76% 0.00 in
09:10 18.2 °F 11.6 °F 30.21 in Calm   5.0 mph 75% 0.00 in
09:15 18.3 °F 11.4 °F 30.21 in North 1.0 mph 6.0 mph 74% 0.00 in
09:20 18.3 °F 11.1 °F 30.21 in Calm   6.0 mph 73% 0.00 in
09:25 18.6 °F 11.7 °F 30.21 in Calm   3.0 mph 74% 0.00 in
09:30 18.7 °F 11.5 °F 30.21 in Calm   4.0 mph 73% 0.00 in
09:35 18.8 °F 11.6 °F 30.21 in North 1.0 mph 4.0 mph 73% 0.00 in
09:40 19.0 °F 11.5 °F 30.21 in Calm   3.0 mph 72% 0.00 in
09:45 19.2 °F 11.3 °F 30.22 in NNW 2.0 mph 4.0 mph 71% 0.00 in
09:50 19.2 °F 11.3 °F 30.22 in Calm   6.0 mph 71% 0.00 in
09:55 19.0 °F 11.1 °F 30.22 in Calm   6.0 mph 71% 0.00 in
10:00 19.4 °F 11.5 °F 30.22 in North 1.0 mph 4.0 mph 71% 0.00 in
10:05 19.7 °F 11.5 °F 30.22 in NNE 1.0 mph 4.0 mph 70% 0.00 in
10:10 20.2 °F 11.7 °F 30.23 in Calm   4.0 mph 69% 0.00 in
10:15 20.6 °F 12.0 °F 30.23 in Calm   4.0 mph 69% 0.00 in
10:20 20.5 °F 11.3 °F 30.23 in NNW 2.0 mph 7.0 mph 67% 0.00 in
10:25 20.7 °F 11.8 °F 30.23 in Calm   7.0 mph 68% 0.00 in
10:30 21.5 °F 11.6 °F 30.22 in NNE 2.0 mph 8.0 mph 65% 0.00 in
10:35 21.9 °F 12.3 °F 30.22 in Calm   8.0 mph 66% 0.00 in
10:40 22.2 °F 11.5 °F 30.22 in Calm   5.0 mph 63% 0.00 in
10:45 21.8 °F 11.1 °F 30.22 in NW 1.0 mph 3.0 mph 63% 0.00 in
10:50 21.5 °F 10.9 °F 30.22 in NW 1.0 mph 4.0 mph 63% 0.00 in
10:55 21.6 °F 10.6 °F 30.22 in NNE 1.0 mph 5.0 mph 62% 0.00 in
11:00 21.7 °F 11.4 °F 30.22 in North 1.0 mph 5.0 mph 64% 0.00 in
11:05 22.0 °F 12.0 °F 30.22 in NW 1.0 mph 4.0 mph 65% 0.00 in
11:10 21.8 °F 11.5 °F 30.23 in NW 2.0 mph 5.0 mph 64% 0.00 in
11:15 21.8 °F 11.1 °F 30.23 in NW 2.0 mph 5.0 mph 63% 0.00 in
11:20 21.6 °F 10.9 °F 30.23 in WNW 4.0 mph 6.0 mph 63% 0.00 in
11:25 21.2 °F 10.9 °F 30.23 in West 3.0 mph 7.0 mph 64% 0.00 in
11:30 21.2 °F 11.3 °F 30.23 in NW 4.0 mph 7.0 mph 65% 0.00 in
11:35 21.5 °F 11.6 °F 30.23 in NNW 2.0 mph 8.0 mph 65% 0.00 in
11:40 22.2 °F 11.9 °F 30.23 in NNW 2.0 mph 8.0 mph 64% 0.00 in
11:50 22.2 °F 11.5 °F 30.23 in WNW 1.0 mph 7.0 mph 63% 0.00 in
11:55 22.5 °F 12.2 °F 30.23 in NW 3.0 mph 8.0 mph 64% 0.00 in
12:00 22.0 °F 11.7 °F 30.23 in West 4.0 mph 8.0 mph 64% 0.00 in
12:05 22.2 °F 11.5 °F 30.23 in NNW 2.0 mph 7.0 mph 63% 0.00 in
12:10 22.5 °F 11.8 °F 30.23 in NW 4.0 mph 7.0 mph 63% 0.00 in
12:15 22.2 °F 11.2 °F 30.23 in WNW 3.0 mph 7.0 mph 62% 0.00 in
12:20 22.2 °F 11.5 °F 30.23 in West 4.0 mph 7.0 mph 63% 0.00 in
12:25 22.0 °F 11.3 °F 30.23 in WNW 3.0 mph 10.0 mph 63% 0.00 in
12:30 22.2 °F 11.2 °F 30.23 in NW 4.0 mph 10.0 mph 62% 0.00 in
12:40 21.9 °F 10.1 °F 30.23 in WNW 1.0 mph 9.0 mph 60% 0.00 in
12:45 22.0 °F 10.2 °F 30.23 in West 2.0 mph 9.0 mph 60% 0.00 in
12:50 22.2 °F 10.4 °F 30.23 in NW 4.0 mph 7.0 mph 60% 0.00 in
12:55 22.6 °F 10.8 °F 30.23 in NW 1.0 mph 7.0 mph 60% 0.00 in
13:00 23.0 °F 10.0 °F 30.23 in NW 2.0 mph 8.0 mph 57% 0.00 in
13:05 23.1 °F 9.3 °F 30.23 in NW 3.0 mph 8.0 mph 55% 0.00 in
13:10 23.6 °F 10.6 °F 30.24 in WNW 3.0 mph 7.0 mph 57% 0.00 in
13:15 24.0 °F 10.2 °F 30.24 in NNW 1.0 mph 7.0 mph 55% 0.00 in
13:20 24.3 °F 10.0 °F 30.24 in NNW 2.0 mph 5.0 mph 54% 0.00 in
13:25 24.4 °F 9.3 °F 30.24 in NW 1.0 mph 6.0 mph 52% 0.00 in
13:30 24.3 °F 10.0 °F 30.24 in NW 3.0 mph 6.0 mph 54% 0.00 in
13:40 24.7 °F 9.6 °F 30.24 in WNW 3.0 mph 10.0 mph 52% 0.00 in
13:45 24.2 °F 8.7 °F 30.24 in West 5.0 mph 12.0 mph 51% 0.00 in
13:55 24.3 °F 9.2 °F 30.24 in Calm   11.0 mph 52% 0.00 in
14:00 24.7 °F 8.7 °F 30.24 in NW 4.0 mph 8.0 mph 50% 0.00 in
14:05 24.9 °F 9.3 °F 30.24 in WNW 2.0 mph 8.0 mph 51% 0.00 in
14:10 25.0 °F 9.0 °F 30.24 in NW 3.0 mph 6.0 mph 50% 0.00 in
14:15 24.8 °F 9.7 °F 30.24 in NNE 1.0 mph 6.0 mph 52% 0.00 in
14:20 25.1 °F 9.5 °F 30.25 in NNE 1.0 mph 5.0 mph 51% 0.00 in
14:25 25.0 °F 9.4 °F 30.25 in North 1.0 mph 5.0 mph 51% 0.00 in
14:35 24.9 °F 9.8 °F 30.25 in NNE 2.0 mph 6.0 mph 52% 0.00 in
14:40 25.1 °F 10.4 °F 30.25 in NNE 1.0 mph 6.0 mph 53% 0.00 in
14:45 25.2 °F 10.5 °F 30.25 in NNE 2.0 mph 5.0 mph 53% 0.00 in
14:50 25.2 °F 10.0 °F 30.25 in NE 2.0 mph 5.0 mph 52% 0.00 in
14:55 25.3 °F 10.1 °F 30.25 in NE 1.0 mph 4.0 mph 52% 0.00 in
15:00 25.7 °F 10.9 °F 30.25 in NE 1.0 mph 4.0 mph 53% 0.00 in
15:05 26.6 °F 11.8 °F 30.25 in NE 2.0 mph 4.0 mph 53% 0.00 in
15:10 27.3 °F 12.4 °F 30.25 in NNE 2.0 mph 5.0 mph 53% 0.00 in
15:15 27.7 °F 12.8 °F 30.25 in Calm   5.0 mph 53% 0.00 in
15:20 28.3 °F 13.3 °F 30.25 in North 1.0 mph 4.0 mph 53% 0.00 in
15:25 28.7 °F 13.3 °F 30.25 in North 1.0 mph 7.0 mph 52% 0.00 in
15:30 28.9 °F 13.5 °F 30.25 in NNW 1.0 mph 7.0 mph 52% 0.00 in
15:35 29.2 °F 13.8 °F 30.25 in Calm   5.0 mph 52% 0.00 in
15:40 28.8 °F 13.4 °F 30.25 in Calm   5.0 mph 52% 0.00 in
15:45 28.8 °F 13.4 °F 30.25 in Calm   3.0 mph 52% 0.00 in
15:50 29.0 °F 13.6 °F 30.25 in Calm   4.0 mph 52% 0.00 in
15:55 29.3 °F 13.8 °F 30.25 in Calm   4.0 mph 52% 0.00 in
16:00 29.4 °F 13.9 °F 30.25 in Calm   2.0 mph 52% 0.00 in
16:05 29.3 °F 13.8 °F 30.25 in Calm   2.0 mph 52% 0.00 in
16:10 29.4 °F 13.9 °F 30.25 in Calm     52% 0.00 in
16:15 29.5 °F 14.0 °F 30.25 in Calm     52% 0.00 in
16:20 29.7 °F 14.2 °F 30.25 in Calm   2.0 mph 52% 0.00 in
16:30 29.7 °F 14.7 °F 30.25 in Calm   3.0 mph 53% 0.00 in
16:35 29.6 °F 15.0 °F 30.25 in Calm   3.0 mph 54% 0.00 in
16:40 29.7 °F 15.1 °F 30.25 in Calm   2.0 mph 54% 0.00 in
16:45 29.6 °F 15.0 °F 30.25 in Calm   2.0 mph 54% 0.00 in
16:50 29.3 °F 14.7 °F 30.25 in Calm   2.0 mph 54% 0.00 in
16:55 28.8 °F 14.7 °F 30.25 in Calm     55% 0.00 in
17:00 28.3 °F 14.2 °F 30.25 in Calm     55% 0.00 in
17:05 28.0 °F 14.3 °F 30.25 in Calm     56% 0.00 in
17:10 27.8 °F 14.5 °F 30.25 in Calm     57% 0.00 in
17:15 27.4 °F 14.2 °F 30.25 in Calm     57% 0.00 in
17:20 27.0 °F 14.2 °F 30.25 in Calm     58% 0.00 in
17:25 26.4 °F 14.0 °F 30.25 in Calm     59% 0.00 in
17:30 26.0 °F 14.0 °F 30.25 in Calm     60% 0.00 in
17:35 25.6 °F 14.0 °F 30.25 in Calm     61% 0.00 in
17:40 25.1 °F 13.9 °F 30.25 in Calm     62% 0.00 in
17:45 24.7 °F 14.3 °F 30.26 in Calm     64% 0.00 in
17:50 24.1 °F 13.7 °F 30.26 in Calm     64% 0.00 in
17:55 23.7 °F 13.7 °F 30.26 in Calm     65% 0.00 in
18:00 23.4 °F 13.7 °F 30.26 in Calm     66% 0.00 in
18:05 23.4 °F 14.1 °F 30.26 in Calm   1.0 mph 67% 0.00 in
18:10 23.3 °F 14.0 °F 30.26 in Calm   1.0 mph 67% 0.00 in
18:15 23.0 °F 15.6 °F 30.27 in Calm     73% 0.00 in
18:20 22.9 °F 13.9 °F 30.27 in Calm     68% 0.00 in
18:25 23.0 °F 14.3 °F 30.27 in Calm     69% 0.00 in
18:30 23.1 °F 14.4 °F 30.27 in Calm     69% 0.00 in
18:40 23.0 °F 14.7 °F 30.27 in Calm     70% 0.00 in
18:45 22.7 °F 14.4 °F 30.27 in Calm     70% 0.00 in
18:50 22.2 °F 13.9 °F 30.27 in Calm     70% 0.00 in
18:55 21.7 °F 13.7 °F 30.27 in Calm     71% 0.00 in
19:00 21.5 °F 13.9 °F 30.27 in Calm     72% 0.00 in
19:05 21.3 °F 13.7 °F 30.27 in Calm     72% 0.00 in
19:10 21.2 °F 13.9 °F 30.27 in Calm     73% 0.00 in
19:15 21.0 °F 13.7 °F 30.27 in Calm     73% 0.00 in
19:20 20.9 °F 13.9 °F 30.27 in Calm     74% 0.00 in
19:25 20.9 °F 14.2 °F 30.27 in Calm     75% 0.00 in
19:30 21.1 °F 14.4 °F 30.27 in Calm     75% 0.00 in
19:35 21.1 °F 14.4 °F 30.27 in Calm     75% 0.00 in
19:40 20.9 °F 14.5 °F 30.27 in Calm     76% 0.00 in
19:45 21.0 °F 14.9 °F 30.27 in Calm     77% 0.00 in
19:50 21.3 °F 15.2 °F 30.27 in Calm     77% 0.00 in
19:55 21.7 °F 15.3 °F 30.27 in Calm     76% 0.00 in
20:00 21.8 °F 15.4 °F 30.27 in Calm   1.0 mph 76% 0.00 in
20:05 21.5 °F 14.8 °F 30.27 in Calm   1.0 mph 75% 0.00 in
20:10 21.2 °F 14.8 °F 30.28 in Calm     76% 0.00 in
20:15 20.9 °F 14.8 °F 30.28 in Calm     77% 0.00 in
20:20 20.9 °F 14.8 °F 30.28 in Calm     77% 0.00 in
20:25 20.8 °F 14.7 °F 30.28 in Calm     77% 0.00 in
20:30 20.7 °F 14.6 °F 30.28 in Calm     77% 0.00 in
20:35 20.5 °F 14.4 °F 30.28 in Calm     77% 0.00 in
20:40 20.3 °F 14.2 °F 30.28 in Calm     77% 0.00 in
20:45 20.1 °F 14.1 °F 30.28 in Calm     77% 0.00 in
20:50 19.7 °F 13.7 °F 30.28 in Calm     77% 0.00 in
20:55 19.3 °F 13.6 °F 30.28 in Calm     78% 0.00 in
21:00 19.1 °F 13.4 °F 30.28 in Calm     78% 0.00 in
21:05 18.9 °F 13.5 °F 30.28 in Calm     79% 0.00 in
21:10 18.7 °F 13.3 °F 30.29 in Calm     79% 0.00 in
21:15 18.5 °F 13.1 °F 30.29 in Calm     79% 0.00 in
21:20 18.3 °F 13.2 °F 30.29 in Calm     80% 0.00 in
21:25 18.3 °F 13.2 °F 30.29 in Calm     80% 0.00 in
21:30 18.5 °F 13.6 °F 30.29 in Calm     81% 0.00 in
21:35 18.8 °F 13.9 °F 30.29 in Calm     81% 0.00 in
21:40 19.1 °F 14.2 °F 30.29 in Calm     81% 0.00 in
21:45 19.2 °F 14.3 °F 30.29 in Calm     81% 0.00 in
21:50 19.3 °F 14.4 °F 30.29 in Calm     81% 0.00 in
21:55 19.7 °F 14.8 °F 30.29 in Calm     81% 0.00 in
22:00 19.7 °F 14.8 °F 30.29 in Calm     81% 0.00 in
22:05 19.7 °F 14.8 °F 30.29 in Calm     81% 0.00 in
22:10 19.5 °F 14.3 °F 30.29 in Calm     80% 0.00 in
22:15 19.1 °F 13.9 °F 30.29 in Calm     80% 0.00 in
22:20 19.0 °F 14.1 °F 30.29 in Calm     81% 0.00 in
22:25 18.9 °F 14.0 °F 30.29 in Calm     81% 0.00 in
22:30 18.9 °F 14.0 °F 30.29 in Calm     81% 0.00 in
22:35 18.7 °F 13.8 °F 30.29 in Calm     81% 0.00 in
22:40 18.5 °F 13.6 °F 30.29 in Calm     81% 0.00 in
22:45 18.2 °F 13.4 °F 30.29 in Calm     81% 0.00 in
22:55 18.2 °F 13.6 °F 30.29 in Calm     82% 0.00 in
23:00 18.5 °F 13.9 °F 30.29 in Calm     82% 0.00 in
23:05 18.4 °F 13.8 °F 30.29 in Calm     82% 0.00 in
23:10 18.3 °F 13.7 °F 30.29 in Calm     82% 0.00 in
23:15 18.3 °F 13.7 °F 30.30 in Calm     82% 0.00 in
23:20 18.5 °F 14.2 °F 30.29 in Calm     83% 0.00 in
23:25 18.6 °F 14.3 °F 30.30 in Calm     83% 0.00 in
23:30 18.8 °F 14.5 °F 30.30 in Calm     83% 0.00 in
23:35 18.6 °F 14.0 °F 30.30 in Calm     82% 0.00 in
23:39 18.5 °F 13.9 °F 30.30 in Calm     82% 0.00 in
23:45 18.2 °F 13.6 °F 30.30 in Calm     82% 0.00 in
23:55 18.3 °F 14.0 °F 30.30 in Calm     83% 0.00 in
Westford Weather
Compliments of Weather Underground

 
 
Current Radar Loop:

Copyright © WestfordWeather.net 2007-2014. All rights reserved.